ADDS METAR Data INFO
IDs: Format: Raw Decoded Include TAF

Data at: 1819 UTC 24 Nov 2017

KSJT 241751Z 21015KT 10SM CLR 24/01 A2992 RMK AO2 SLP122 T02390006 10239 20033 58018
KSJT 241651Z 21009KT 10SM CLR 22/02 A2995 RMK AO2 SLP134 T02170017
KSJT 241551Z 21011KT 10SM CLR 19/02 A2996 RMK AO2 SLP137 T01890022
KSJT 241451Z 19004KT 10SM CLR 12/03 A2997 RMK AO2 SLP146 T01170028 56003
KSJT 241351Z 24004KT 5SM HZ CLR 06/00 A2998 RMK AO2 SLP152 T00560000
KSJT 241251Z AUTO 24005KT 10SM CLR 04/M01 A2997 RMK AO2 SLP151 T00391011
KSJT 241151Z AUTO 24005KT 9SM CLR 04/M01 A2998 RMK AO2 SLP150 T00441011 10072 20039 58007
KSJT 241051Z AUTO 26005KT 10SM CLR 06/M01 A2999 RMK AO2 SLP151 T00561006
KSJT 240951Z AUTO 27004KT 10SM CLR 05/M01 A3000 RMK AO2 SLP151 T00501011
KSJT 240851Z AUTO 25005KT 5SM HZ CLR 06/M01 A3000 RMK AO2 SLP153 T00561011 58017
KSJT 240751Z AUTO 19004KT 10SM CLR 06/M01 A3002 RMK AO2 SLP160 T00611011
KSJT 240651Z AUTO 23007KT 10SM CLR 06/M01 A3004 RMK AO2 SLP168 T00561011
KSJT 240551Z AUTO 23004KT 10SM CLR 07/M01 A3006 RMK AO2 SLP173 T00671006 10156 20061 402281011 58004
KSJT 240451Z AUTO 23006KT 10SM CLR 08/00 A3007 RMK AO2 SLP177 T00830000
KSJT 240351Z AUTO 20004KT 10SM CLR 08/01 A3007 RMK AO2 SLP180 T00830006
KSJT 240251Z AUTO 20004KT 10SM CLR 10/00 A3007 RMK AO2 SLP183 T01000000 53006
KSJT 240151Z 19006KT 10SM CLR 12/01 A3006 RMK AO2 SLP181 T01170006
KSJT 240051Z 17005KT 10SM CLR 13/01 A3005 RMK AO2 SLP182 T01330006
KSJT 232351Z 00000KT 10SM CLR 16/01 A3005 RMK AO2 SLP177 T01610006 10228 20161 56006
KSJT 232251Z 00000KT 10SM CLR 21/M01 A3006 RMK AO2 SLP175 T02061006
KSJT 232151Z 00000KT 10SM CLR 23/M02 A3006 RMK AO2 SLP176 T02281022
KSJT 232051Z 28006KT 10SM CLR 22/M02 A3007 RMK AO2 SLP179 T02171022 56033
KSJT 231951Z VRB05KT 10SM CLR 22/M02 A3009 RMK AO2 SLP185 T02221017
KSJT 231851Z 27005KT 10SM CLR 21/M02 A3013 RMK AO2 SLP198 T02111017
KSJT 231751Z 24007KT 10SM CLR 19/M02 A3017 RMK AO2 SLP214 T01891022 10194 21011 58014
KSJT 231651Z VRB04KT 10SM CLR 16/M03 A3020 RMK AO2 SLP227 T01611028
KSJT 231551Z 27005KT 10SM CLR 12/M03 A3021 RMK AO2 SLP233 T01171033
KSJT 231451Z 24004KT 10SM CLR 06/M03 A3021 RMK AO2 SLP236 T00561028 50002
KSJT 231351Z 25003KT 10SM CLR 01/M03 A3021 RMK AO2 SLP239 T00111033
KSJT 231251Z 24004KT 10SM CLR M01/M04 A3021 RMK AO2 SLP238 T10111039
KSJT 231151Z AUTO 26003KT 10SM CLR 00/M04 A3021 RMK AO2 SLP234 T00001039 10028 21006 55005
KSJT 231051Z AUTO 22005KT 10SM CLR 00/M04 A3020 RMK AO2 SLP229 T00001044
KSJT 230951Z AUTO 22003KT 10SM CLR 01/M04 A3022 RMK AO2 SLP233 T00061039
KSJT 230851Z AUTO 22005KT 10SM CLR 01/M03 A3022 RMK AO2 SLP236 T00061033 58012
KSJT 230751Z AUTO 25006KT 10SM CLR 01/M03 A3023 RMK AO2 SLP241 T00111033
KSJT 230651Z AUTO 25004KT 10SM CLR 03/M04 A3025 RMK AO2 SLP246 T00281039